Time;durP1;ratioP1;P1;durP2;ratioP2;P2;SDS_P1;SDS_P2;PMS_P1;PMS_P2;Temp;Humidity;BMP_temperature;BMP_pressure;BME280_temperature;BME280_humidity;BME280_pressure;Samples;Min_cycle;Max_cycle;Signal;HPM_P1;HPM_P2
2022/08/25 00:02:07;;;;;;;2.77;2.17;;;26.40;50.20;;;-142.21;49.68;112049.66;5051596;28;20696;-72
2022/08/25 00:04:36;;;;;;;2.80;2.50;;;26.40;50.40;;;-142.21;49.92;112049.66;5051853;28;20193;-72
2022/08/25 00:07:05;;;;;;;2.40;2.20;;;26.40;50.30;;;-142.21;49.92;112049.66;5051660;28;20210;-72
2022/08/25 00:09:35;;;;;;;2.60;2.40;;;26.30;50.40;;;-142.21;50.17;112049.66;5050928;28;20271;-72
2022/08/25 00:12:05;;;;;;;3.10;2.47;;;26.20;50.50;;;-142.21;50.26;112049.66;5033036;28;20204;-72
2022/08/25 00:14:38;;;;;;;2.50;2.30;;;26.20;50.60;;;-142.21;49.89;112049.66;5051086;28;20189;-72
2022/08/25 00:17:07;;;;;;;2.67;2.13;;;26.20;50.60;;;-142.21;50.71;112049.66;5051472;28;20701;-72
2022/08/25 00:19:37;;;;;;;3.07;2.10;;;26.10;50.70;;;-142.21;50.97;112049.66;5051017;28;20206;-72
2022/08/25 00:22:07;;;;;;;3.23;2.37;;;26.00;50.60;;;-142.21;50.96;112049.66;5051874;28;20194;-72
2022/08/25 00:24:35;;;;;;;2.63;2.30;;;26.00;51.00;;;-142.21;51.80;112049.66;5016525;28;20209;-73
2022/08/25 00:27:07;;;;;;;2.30;2.10;;;26.00;51.00;;;-142.21;51.87;112049.66;5051729;28;20212;-72
2022/08/25 00:29:36;;;;;;;2.90;2.60;;;25.90;51.30;;;-142.21;52.01;112049.66;5051211;28;20300;-72
2022/08/25 00:32:05;;;;;;;2.60;2.10;;;25.90;51.20;;;-142.21;52.86;112049.66;5051705;28;20371;-72
2022/08/25 00:34:37;;;;;;;3.33;2.30;;;25.80;51.50;;;-142.21;52.94;112049.66;5051224;28;20210;-72
2022/08/25 00:37:08;;;;;;;2.57;2.37;;;25.80;51.70;;;-142.21;53.37;112049.66;5051716;28;20632;-72
2022/08/25 00:39:37;;;;;;;3.20;2.00;;;25.80;51.90;;;-142.21;53.94;112049.66;5050918;28;20585;-72
2022/08/25 00:42:08;;;;;;;2.80;2.40;;;25.80;52.00;;;-142.21;54.26;112049.66;5051290;28;20210;-72
2022/08/25 00:44:35;;;;;;;3.97;2.67;;;25.70;52.20;;;-142.21;54.41;112049.66;5051037;28;20281;-72
2022/08/25 00:47:05;;;;;;;2.67;2.17;;;25.70;52.00;;;-142.21;54.72;112049.66;5051385;28;20210;-72
2022/08/25 00:49:38;;;;;;;2.57;2.20;;;25.70;52.20;;;-142.21;54.64;112049.66;5054505;28;20233;-71
2022/08/25 00:52:15;;;;;;;2.40;2.20;;;25.70;52.30;;;-142.21;54.95;112049.66;5055289;28;20194;-72
2022/08/25 00:54:47;;;;;;;4.33;2.43;;;25.60;52.40;;;-142.21;54.44;112049.66;5055529;28;20232;-72
2022/08/25 00:57:20;;;;;;;3.63;2.20;;;25.60;52.50;;;-142.21;54.46;112049.66;5054572;28;20221;-72
2022/08/25 00:59:48;;;;;;;2.47;2.17;;;25.60;52.50;;;-142.21;55.02;112049.66;5055280;28;20271;-71
2022/08/25 01:02:16;;;;;;;2.30;2.10;;;25.60;52.50;;;-142.21;54.98;112049.66;5054730;28;20245;-72
2022/08/25 01:04:45;;;;;;;3.80;2.20;;;25.60;52.60;;;-142.21;55.52;112049.66;5055278;28;20291;-73
2022/08/25 01:07:14;;;;;;;2.37;2.17;;;25.50;52.70;;;-142.21;55.39;112049.66;5055449;28;20205;-72
2022/08/25 01:09:45;;;;;;;2.50;2.30;;;25.50;52.70;;;-142.21;55.12;112049.66;5054664;28;20682;-72
2022/08/25 01:12:13;;;;;;;2.50;2.30;;;25.50;52.70;;;-142.21;55.93;112049.66;5055215;28;20190;-72
2022/08/25 01:14:44;;;;;;;2.67;2.43;;;25.40;52.80;;;-142.21;55.48;112049.66;5054887;28;20210;-72
2022/08/25 01:17:12;;;;;;;2.43;2.23;;;25.40;52.80;;;-142.21;55.92;112049.66;5055114;28;20582;-72
2022/08/25 01:19:39;;;;;;;2.60;2.10;;;25.40;52.80;;;-142.21;56.38;112049.66;5055143;28;20240;-72
2022/08/25 01:22:10;;;;;;;2.47;2.27;;;25.40;53.10;;;-142.21;56.53;112049.66;5055062;28;20297;-72
2022/08/25 01:24:47;;;;;;;2.60;2.40;;;25.30;53.20;;;-142.21;56.55;112049.66;5054030;28;20238;-72
2022/08/25 01:27:14;;;;;;;2.37;2.17;;;25.30;53.30;;;-142.21;56.80;112049.66;5054706;28;20648;-72
2022/08/25 01:29:42;;;;;;;2.70;2.50;;;25.30;53.30;;;-142.21;56.85;112049.66;5019434;28;20597;-72
2022/08/25 01:32:13;;;;;;;2.70;2.17;;;25.30;53.30;;;-142.21;56.59;112049.66;5054569;28;20240;-72
2022/08/25 01:34:44;;;;;;;2.57;2.37;;;25.20;53.20;;;-142.21;56.70;112049.66;5054673;28;20212;-72
2022/08/25 01:37:17;;;;;;;2.27;2.07;;;25.20;53.20;;;-142.21;56.80;112049.66;5054566;28;20721;-72
2022/08/25 01:39:45;;;;;;;2.50;2.30;;;25.20;53.30;;;-142.21;57.27;112049.66;5054532;28;20182;-72
2022/08/25 01:42:47;;;;;;;2.77;2.47;;;25.20;53.40;;;-142.21;57.49;112049.66;5054619;28;20229;-72
2022/08/25 01:45:15;;;;;;;3.67;2.57;;;25.20;53.90;;;-142.21;57.66;112049.66;5054503;28;20273;-72
2022/08/25 01:47:44;;;;;;;3.03;2.20;;;25.10;53.60;;;-142.21;58.00;112049.66;5054499;28;20237;-71
2022/08/25 01:50:12;;;;;;;2.40;2.20;;;25.10;53.80;;;-142.21;58.79;112049.66;5054171;28;20261;-71
2022/08/25 01:52:54;;;;;;;2.80;2.60;;;25.10;53.90;;;-142.21;59.02;112049.66;5053533;28;20256;-71
2022/08/25 01:55:21;;;;;;;2.73;2.53;;;25.00;54.40;;;-142.21;59.57;112049.66;5053427;28;20233;-71
2022/08/25 01:57:48;;;;;;;2.83;2.50;;;25.00;54.30;;;-142.21;59.94;112049.66;5053837;28;20717;-71
2022/08/25 02:00:19;;;;;;;3.43;2.30;;;24.90;54.30;;;-142.21;60.09;112049.66;5053356;28;20240;-71
2022/08/25 02:02:46;;;;;;;4.67;2.53;;;24.90;54.50;;;-142.21;60.09;112049.66;5054156;28;20308;-73
2022/08/25 02:05:16;;;;;;;2.50;2.30;;;24.90;54.50;;;-142.21;60.74;112049.66;5054112;28;20627;-71
2022/08/25 02:07:47;;;;;;;3.10;2.60;;;24.80;54.60;;;-142.21;61.23;112049.66;5053910;28;20284;-72
2022/08/25 02:10:15;;;;;;;3.70;2.67;;;24.80;54.80;;;-142.21;61.49;112049.66;5054000;28;20210;-71
2022/08/25 02:12:42;;;;;;;2.57;2.37;;;24.80;54.90;;;-142.21;61.51;112049.66;5025429;28;20667;-72
2022/08/25 02:15:11;;;;;;;2.73;2.40;;;24.80;54.80;;;-142.21;61.84;112049.66;5031852;28;20207;-72
2022/08/25 02:17:38;;;;;;;2.57;2.37;;;24.80;55.10;;;-142.21;61.98;112049.66;5033155;28;20246;-72
2022/08/25 02:20:08;;;;;;;2.43;2.23;;;24.80;55.70;;;-142.21;62.02;112049.66;5033953;28;20288;-72
2022/08/25 02:22:36;;;;;;;2.40;2.20;;;24.70;55.30;;;-142.21;62.02;112049.66;5032890;28;20217;-72
2022/08/25 02:25:06;;;;;;;3.30;2.73;;;24.70;55.80;;;-142.21;62.50;112049.66;5033845;28;20567;-72
2022/08/25 02:27:34;;;;;;;2.80;2.50;;;24.70;55.50;;;-142.21;62.85;112049.66;5032914;28;20289;-72
2022/08/25 02:30:01;;;;;;;3.23;2.30;;;24.70;55.50;;;-142.21;63.75;112049.66;5033631;28;20320;-72
2022/08/25 02:32:31;;;;;;;2.60;2.40;;;24.70;55.70;;;-142.21;64.27;112049.66;5032839;28;20242;-72
2022/08/25 02:34:58;;;;;;;2.60;2.40;;;24.60;55.90;;;-142.21;65.00;112049.66;5033302;28;20252;-72
2022/08/25 02:37:26;;;;;;;2.70;2.50;;;24.60;56.60;;;-142.21;65.22;112049.66;5032494;28;20226;-72
2022/08/25 02:39:53;;;;;;;3.07;2.77;;;24.60;56.20;;;-142.21;65.41;112049.66;5033188;28;20206;-73
2022/08/25 02:42:23;;;;;;;3.13;2.67;;;24.50;56.10;;;-142.21;65.18;112049.66;5032865;28;20210;-71
2022/08/25 02:44:50;;;;;;;2.70;2.50;;;24.50;56.40;;;-142.21;65.62;112049.66;5033127;28;20198;-71
2022/08/25 02:47:18;;;;;;;3.23;2.57;;;24.50;56.30;;;-142.21;65.52;112049.66;5033454;28;20605;-73
2022/08/25 02:49:45;;;;;;;3.17;2.87;;;24.50;56.40;;;-142.21;65.40;112049.66;5032924;28;20768;-71
2022/08/25 02:52:13;;;;;;;2.97;2.70;;;24.50;56.20;;;-142.21;65.33;112049.66;5034169;28;20238;-71
2022/08/25 02:54:40;;;;;;;5.57;2.73;;;24.70;56.40;;;-142.21;64.91;112049.66;5033054;28;20703;-74
2022/08/25 02:57:09;;;;;;;2.70;2.50;;;24.70;56.60;;;-142.21;64.60;112049.66;5031376;28;20620;-72
2022/08/25 02:59:39;;;;;;;2.83;2.53;;;24.70;56.50;;;-142.21;65.08;112049.66;5033320;28;20193;-72
2022/08/25 03:02:06;;;;;;;2.60;2.40;;;24.70;56.50;;;-142.21;65.02;112049.66;5033629;28;20260;-72
2022/08/25 03:04:34;;;;;;;2.60;2.40;;;24.70;56.40;;;-142.21;66.15;112049.66;5033375;28;20694;-72
2022/08/25 03:07:02;;;;;;;3.10;2.80;;;24.70;56.60;;;-142.21;66.80;112049.66;5033668;28;20206;-71
2022/08/25 03:09:29;;;;;;;3.67;2.50;;;24.70;56.60;;;-142.21;66.32;112049.66;5032912;28;20270;-72
2022/08/25 03:11:57;;;;;;;2.60;2.40;;;24.70;56.80;;;-142.21;66.49;112049.66;5050074;28;20257;-73
2022/08/25 03:14:24;;;;;;;2.90;2.57;;;24.60;56.60;;;-142.21;66.53;112049.66;5073463;28;20194;-72
2022/08/25 03:16:53;;;;;;;3.27;2.97;;;24.60;56.80;;;-142.21;66.37;112049.66;5060650;28;20212;-72
2022/08/25 03:19:20;;;;;;;3.63;3.07;;;24.50;56.60;;;-142.21;66.89;112049.66;5052961;28;20317;-72
2022/08/25 03:21:49;;;;;;;2.70;2.50;;;24.50;56.70;;;-142.21;67.02;112049.66;5052388;28;20210;-72
2022/08/25 03:24:16;;;;;;;2.97;2.60;;;24.40;56.80;;;-142.21;66.72;112049.66;5052268;28;20206;-72
2022/08/25 03:26:52;;;;;;;3.20;2.90;;;24.40;56.80;;;-142.21;67.05;112049.66;5052160;28;20230;-72
2022/08/25 03:29:21;;;;;;;3.30;2.67;;;24.40;56.80;;;-142.21;67.30;112049.66;5052264;28;20221;-72
2022/08/25 03:31:48;;;;;;;4.07;2.80;;;24.40;56.90;;;-142.21;67.17;112049.66;5052897;28;20217;-72
2022/08/25 03:34:19;;;;;;;3.53;3.20;;;24.40;56.80;;;-142.21;66.99;112049.66;5052186;28;20301;-72
2022/08/25 03:36:50;;;;;;;2.87;2.67;;;24.30;56.80;;;-142.21;67.14;112049.66;5052472;28;20225;-72
2022/08/25 03:39:19;;;;;;;2.80;2.60;;;24.30;57.40;;;-142.21;67.23;112049.66;5051901;28;20236;-72
2022/08/25 03:41:47;;;;;;;3.30;3.00;;;24.20;56.80;;;-142.21;67.52;112049.66;5052159;28;20657;-72
2022/08/25 03:44:16;;;;;;;2.90;2.70;;;24.20;57.00;;;-142.21;67.56;112049.66;5052295;28;20244;-72
2022/08/25 03:46:46;;;;;;;3.37;2.90;;;24.10;56.90;;;-142.21;67.79;112049.66;5051820;28;20201;-72
2022/08/25 03:49:19;;;;;;;3.13;2.77;;;24.10;57.10;;;-142.21;68.17;112049.66;5051974;28;20730;-72
2022/08/25 03:51:49;;;;;;;3.50;2.93;;;24.10;57.30;;;-142.21;68.58;112049.66;5051749;28;20335;-73
2022/08/25 03:54:21;;;;;;;3.13;2.83;;;24.00;57.40;;;-142.21;68.97;112049.66;5052215;28;20539;-72
2022/08/25 03:56:49;;;;;;;3.37;3.07;;;24.00;57.50;;;-142.21;69.60;112049.66;5051886;28;20238;-72
2022/08/25 03:59:16;;;;;;;3.87;3.27;;;24.00;57.60;;;-142.21;69.63;112049.66;5051776;28;20241;-72
2022/08/25 04:01:46;;;;;;;3.23;2.80;;;23.90;57.60;;;-142.21;70.00;112049.66;5051491;28;20282;-73
2022/08/25 04:04:16;;;;;;;3.40;3.10;;;23.90;57.90;;;-142.21;70.50;112049.66;5052478;28;20208;-73
2022/08/25 04:06:45;;;;;;;3.87;3.27;;;23.80;58.00;;;-142.21;70.67;112049.66;5051454;28;20283;-73
2022/08/25 04:09:13;;;;;;;5.10;2.83;;;23.90;58.20;;;-142.21;70.90;112049.66;5051534;28;20690;-72
2022/08/25 04:11:41;;;;;;;4.83;3.30;;;23.80;58.20;;;-142.21;71.03;112049.66;5051266;28;20205;-72
2022/08/25 04:14:11;;;;;;;2.90;2.60;;;23.80;58.30;;;-142.21;71.38;112049.66;5051666;28;20672;-72
2022/08/25 04:16:38;;;;;;;3.10;2.80;;;23.80;58.40;;;-142.21;72.28;112049.66;5051356;28;20222;-72
2022/08/25 04:19:09;;;;;;;5.00;3.50;;;23.80;58.70;;;-142.21;71.89;112049.66;5051814;28;20205;-72
2022/08/25 04:21:39;;;;;;;6.57;3.33;;;23.80;58.70;;;-142.21;71.77;112049.66;5051850;28;20229;-72
2022/08/25 04:24:09;;;;;;;3.80;3.40;;;23.80;58.70;;;-142.21;72.30;112049.66;5055968;28;20271;-72
2022/08/25 04:26:41;;;;;;;3.60;3.30;;;23.80;58.90;;;-142.21;72.54;112049.66;5055325;28;20189;-72
2022/08/25 04:29:12;;;;;;;4.67;3.03;;;23.70;58.90;;;-142.21;72.32;112049.66;5055918;28;20208;-72
2022/08/25 04:31:45;;;;;;;3.47;3.17;;;23.70;58.80;;;-142.21;72.30;112049.66;5055031;28;20281;-72
2022/08/25 04:34:13;;;;;;;3.10;2.80;;;23.70;59.00;;;-142.21;73.58;112049.66;5055539;28;20185;-72
2022/08/25 04:36:42;;;;;;;2.97;2.67;;;23.60;59.20;;;-142.21;74.07;112049.66;5054775;28;20274;-71
2022/08/25 04:39:13;;;;;;;3.67;3.23;;;23.60;59.50;;;-142.21;74.15;112049.66;5055332;28;20206;-71
2022/08/25 04:41:40;;;;;;;4.83;3.33;;;23.60;59.40;;;-142.21;76.13;112049.66;5055070;28;20210;-71
2022/08/25 04:44:07;;;;;;;7.27;3.97;;;23.50;59.90;;;-142.21;76.14;112049.66;5055363;28;20216;-72
2022/08/25 04:46:35;;;;;;;6.43;3.80;;;23.50;60.20;;;-142.21;76.73;112049.66;5054989;28;20205;-72
2022/08/25 04:49:04;;;;;;;7.97;4.27;;;23.50;60.30;;;-142.21;77.35;112049.66;5055497;28;20625;-72
2022/08/25 04:51:35;;;;;;;4.70;3.40;;;23.40;60.80;;;-142.21;77.77;112049.66;5054501;28;20237;-71
2022/08/25 04:54:07;;;;;;;8.87;4.47;;;23.40;60.80;;;-142.21;78.47;112049.66;5055247;28;20193;-71
2022/08/25 04:56:36;;;;;;;7.83;4.43;;;23.30;61.30;;;-142.21;78.43;112049.66;5054567;28;20186;-72
2022/08/25 04:59:07;;;;;;;5.33;4.13;;;23.30;61.30;;;-142.21;78.25;112049.66;5055080;28;20269;-72
2022/08/25 05:01:36;;;;;;;8.50;4.83;;;23.30;61.30;;;-142.21;79.43;112049.66;5054743;28;20247;-72
2022/08/25 05:04:08;;;;;;;7.83;4.83;;;23.30;61.90;;;-142.21;80.27;112049.66;5055288;28;20202;-72
2022/08/25 05:06:37;;;;;;;6.37;4.27;;;23.30;62.40;;;-142.21;79.83;112049.66;5054579;28;20195;-71
2022/08/25 05:09:05;;;;;;;3.43;3.10;;;23.30;62.20;;;-142.21;79.38;112049.66;5055070;28;20216;-72
2022/08/25 05:11:33;;;;;;;3.37;3.07;;;23.30;62.00;;;-142.21;78.79;112049.66;5054730;28;20347;-72
2022/08/25 05:14:02;;;;;;;3.90;3.40;;;23.30;62.00;;;-142.21;78.98;112049.66;5055172;28;20209;-72
2022/08/25 05:16:29;;;;;;;3.90;3.50;;;23.30;62.00;;;-142.21;78.63;112049.66;5054336;28;20208;-72
2022/08/25 05:18:57;;;;;;;3.77;3.43;;;23.30;62.00;;;-142.21;78.23;112049.66;5055299;28;20308;-72
2022/08/25 05:21:27;;;;;;;4.37;3.53;;;23.30;61.70;;;-142.21;78.28;112049.66;5054524;28;20248;-72
2022/08/25 05:23:57;;;;;;;6.07;3.73;;;23.20;61.70;;;-142.21;78.56;112049.66;5054811;28;20308;-72
2022/08/25 05:26:30;;;;;;;3.67;3.37;;;23.30;61.90;;;-142.21;77.92;112049.66;5054989;28;20290;-72
2022/08/25 05:29:03;;;;;;;3.83;3.43;;;23.30;61.80;;;-142.21;78.38;112049.66;5054697;28;20278;-72
2022/08/25 05:31:31;;;;;;;4.03;3.30;;;23.40;61.80;;;-142.21;79.38;112049.66;5054301;28;20236;-71
2022/08/25 05:33:59;;;;;;;4.23;3.50;;;23.40;61.90;;;-142.21;78.58;112049.66;5053878;28;20255;-72
2022/08/25 05:36:29;;;;;;;4.20;3.53;;;23.40;61.60;;;-142.21;77.47;112049.66;5054289;28;20250;-72
2022/08/25 05:38:56;;;;;;;4.03;3.40;;;23.40;61.30;;;-142.21;79.36;112049.66;5054857;28;20209;-72
2022/08/25 05:41:32;;;;;;;4.40;3.50;;;23.40;61.90;;;-142.21;79.67;112049.66;5054485;28;20235;-72
2022/08/25 05:44:00;;;;;;;4.37;3.97;;;23.50;62.20;;;-142.21;80.21;112049.66;5054538;28;20190;-72
2022/08/25 05:46:28;;;;;;;4.23;3.83;;;23.50;62.40;;;-142.21;79.83;112049.66;5054409;28;20290;-72
2022/08/25 05:48:55;;;;;;;4.10;3.70;;;23.50;62.30;;;-142.21;80.02;112049.66;5054255;28;20222;-72
2022/08/25 05:51:23;;;;;;;3.33;3.03;;;23.50;62.20;;;-142.21;80.14;112049.66;5054146;28;20692;-72
2022/08/25 05:53:51;;;;;;;3.90;3.50;;;23.50;62.50;;;-142.21;79.95;112049.66;5053829;28;20211;-72
2022/08/25 05:56:19;;;;;;;4.13;3.23;;;23.50;62.30;;;-142.21;79.80;112049.66;5054458;28;20332;-72
2022/08/25 05:58:49;;;;;;;5.17;3.67;;;23.60;62.30;;;-142.21;78.53;112049.66;5053437;28;20586;-72
2022/08/25 06:04:08;;;;;;;4.27;3.87;;;23.80;62.30;;;-142.21;78.67;112049.66;5053932;28;20672;-73
2022/08/25 06:06:36;;;;;;;5.03;3.67;;;23.80;62.10;;;-142.21;78.85;112049.66;5053310;28;20212;-72
2022/08/25 06:09:07;;;;;;;5.27;3.60;;;23.90;62.00;;;-142.21;78.34;112049.66;5053995;28;20208;-71
2022/08/25 06:11:38;;;;;;;4.23;3.80;;;23.90;61.80;;;-142.21;78.69;112049.66;5053281;28;20209;-73
2022/08/25 06:14:07;;;;;;;4.37;3.70;;;24.00;62.00;;;-142.21;79.08;112049.66;5054193;28;20197;-72
2022/08/25 06:16:35;;;;;;;4.27;3.87;;;24.10;61.90;;;-142.21;76.91;112049.66;5053535;28;20210;-72
2022/08/25 06:19:02;;;;;;;4.50;4.10;;;24.10;61.30;;;-142.21;77.02;112049.66;5054070;28;20271;-72
2022/08/25 06:21:29;;;;;;;5.17;3.70;;;24.20;61.10;;;-142.21;76.47;112049.66;5054491;28;20719;-71
2022/08/25 06:23:58;;;;;;;5.47;3.50;;;24.20;61.00;;;-142.21;76.97;112049.66;5054343;28;20210;-71
2022/08/25 06:26:25;;;;;;;5.17;4.00;;;24.40;61.40;;;-142.21;76.01;112049.66;5054586;28;20213;-73
2022/08/25 06:28:53;;;;;;;5.30;3.97;;;24.40;60.90;;;-142.21;75.89;112049.66;5053320;28;20215;-71
2022/08/25 06:31:22;;;;;;;4.27;3.40;;;24.50;60.70;;;-142.21;75.56;112049.66;5054050;28;20287;-73
2022/08/25 06:33:51;;;;;;;4.37;3.87;;;24.60;60.70;;;-142.21;75.22;112049.66;5053472;28;20537;-73
2022/08/25 06:36:19;;;;;;;4.00;3.57;;;24.70;60.60;;;-142.21;74.55;112049.66;5053762;28;20253;-73
2022/08/25 06:38:47;;;;;;;4.40;4.00;;;24.80;60.40;;;-142.21;74.76;112049.66;5056850;28;20233;-72
2022/08/25 06:41:15;;;;;;;4.33;3.80;;;24.80;60.20;;;-142.21;74.80;112049.66;5068010;28;20202;-72
2022/08/25 06:43:43;;;;;;;4.17;3.77;;;24.90;60.20;;;-142.21;72.74;112049.66;5063916;28;20209;-71
2022/08/25 06:46:14;;;;;;;5.73;3.87;;;25.00;59.70;;;-142.21;72.81;112049.66;5053378;28;20206;-72
2022/08/25 06:48:43;;;;;;;4.33;3.93;;;25.00;59.60;;;-142.21;72.45;112049.66;5052727;28;20290;-72
2022/08/25 06:51:19;;;;;;;4.67;3.80;;;25.10;59.60;;;-142.21;71.82;112049.66;5052959;28;20269;-72
2022/08/25 06:53:49;;;;;;;4.27;3.87;;;25.20;59.40;;;-142.21;72.05;112049.66;5052793;28;20276;-72
2022/08/25 06:56:19;;;;;;;4.23;3.83;;;25.30;59.40;;;-142.21;71.93;112049.66;5052977;28;20630;-73
2022/08/25 06:58:47;;;;;;;5.13;3.90;;;25.30;59.10;;;-142.21;71.06;112049.66;5052031;28;20229;-72
2022/08/25 07:01:18;;;;;;;6.00;4.40;;;25.40;59.00;;;-142.21;70.46;112049.66;5052876;28;20240;-75
2022/08/25 07:03:48;;;;;;;5.17;4.60;;;25.50;58.80;;;-142.21;70.04;112049.66;5052321;28;20190;-72
2022/08/25 07:06:17;;;;;;;4.60;4.03;;;25.60;58.80;;;-142.21;69.72;112049.66;5052749;28;20300;-72
2022/08/25 07:08:44;;;;;;;5.53;4.10;;;25.60;58.60;;;-142.21;69.74;112049.66;5052089;28;20237;-73
2022/08/25 07:11:13;;;;;;;6.97;4.50;;;25.80;58.40;;;-142.21;69.48;112049.66;5052537;28;20233;-73
2022/08/25 07:13:41;;;;;;;4.80;4.23;;;25.80;58.40;;;-142.21;68.83;112049.66;5052230;28;20234;-72
2022/08/25 07:16:09;;;;;;;4.73;4.20;;;25.90;58.20;;;-142.21;68.55;112049.66;5052320;28;20670;-72
2022/08/25 07:18:37;;;;;;;6.30;4.53;;;26.00;58.20;;;-142.21;68.25;112049.66;5051839;28;20682;-73
2022/08/25 07:21:06;;;;;;;4.50;4.10;;;26.10;58.00;;;-142.21;67.54;112049.66;5052639;28;20202;-72
2022/08/25 07:23:34;;;;;;;4.30;3.90;;;26.20;57.80;;;-142.21;66.75;112049.66;5052440;28;20201;-73
2022/08/25 07:26:10;;;;;;;5.43;4.13;;;26.30;57.40;;;-142.21;66.57;112049.66;5017660;28;20295;-72
2022/08/25 07:28:38;;;;;;;4.70;4.30;;;26.40;57.30;;;-142.21;66.26;112049.66;5051942;28;20244;-72
2022/08/25 07:31:05;;;;;;;5.13;4.30;;;26.40;57.10;;;-142.21;65.98;112049.66;5033636;28;20217;-72
2022/08/25 07:33:33;;;;;;;6.23;4.67;;;26.50;57.70;;;-142.21;65.52;112049.66;5052472;28;20210;-72
2022/08/25 07:36:00;;;;;;;6.07;4.07;;;26.60;56.90;;;-142.21;66.05;112049.66;5052206;28;20608;-72
2022/08/25 07:38:29;;;;;;;6.23;4.23;;;26.70;57.00;;;-142.21;65.96;112049.66;5052332;28;20210;-72
2022/08/25 07:41:02;;;;;;;5.40;4.40;;;26.80;57.00;;;-142.21;64.92;112049.66;5051846;28;20205;-72
2022/08/25 07:43:30;;;;;;;4.93;3.93;;;26.90;56.80;;;-142.21;64.51;112049.66;5052298;28;20532;-72
2022/08/25 07:45:57;;;;;;;4.63;4.00;;;27.00;56.60;;;-142.21;64.81;112049.66;5051397;28;20214;-72
2022/08/25 07:48:25;;;;;;;4.73;3.80;;;27.10;56.50;;;-142.21;63.81;112049.66;5051943;28;20206;-73
2022/08/25 07:50:52;;;;;;;4.87;4.37;;;27.20;56.20;;;-142.21;64.33;112049.66;5051351;28;20221;-72
2022/08/25 07:53:20;;;;;;;3.90;3.57;;;27.30;56.20;;;-142.21;62.51;112049.66;5051794;28;20263;-71
2022/08/25 07:55:48;;;;;;;4.40;3.97;;;27.30;55.90;;;-142.21;63.71;112049.66;5051212;28;20207;-71
2022/08/25 07:58:17;;;;;;;5.23;4.17;;;27.40;56.00;;;-142.21;61.87;112049.66;5051167;28;20241;-73
2022/08/25 08:00:49;;;;;;;6.03;3.90;;;27.60;55.60;;;-142.21;61.20;112049.66;5051497;28;20208;-72
2022/08/25 08:03:17;;;;;;;4.50;3.87;;;27.60;55.40;;;-142.21;61.85;112049.66;5052143;28;20188;-73
2022/08/25 08:05:45;;;;;;;4.80;4.30;;;27.70;55.30;;;-142.21;59.25;112049.66;5051288;28;20303;-71
2022/08/25 08:08:12;;;;;;;4.33;3.93;;;27.80;54.80;;;-142.21;60.04;112049.66;5051801;28;20212;-72
2022/08/25 08:10:40;;;;;;;4.37;3.97;;;27.90;54.90;;;-142.21;61.33;112049.66;5050924;28;20705;-72
2022/08/25 08:13:10;;;;;;;4.33;3.90;;;28.00;55.00;;;-142.21;60.30;112049.66;5051542;28;20210;-71
2022/08/25 08:15:38;;;;;;;4.60;4.10;;;28.10;54.80;;;-142.21;59.62;112049.66;5050942;28;20211;-72
2022/08/25 08:18:05;;;;;;;4.70;4.20;;;28.20;54.80;;;-142.21;58.72;112049.66;5051950;28;20200;-73
2022/08/25 08:20:33;;;;;;;4.40;4.00;;;28.30;54.40;;;-142.21;59.20;112049.66;5051703;28;20566;-72
2022/08/25 08:23:00;;;;;;;5.33;4.10;;;28.40;54.20;;;-142.21;58.92;112049.66;5051224;28;20625;-71
2022/08/25 08:25:28;;;;;;;6.70;3.73;;;28.60;54.30;;;-142.21;56.48;112049.66;5051496;28;20227;-72
2022/08/25 08:27:56;;;;;;;4.20;3.80;;;28.60;53.60;;;-142.21;56.55;112049.66;5051216;28;20298;-72
2022/08/25 08:30:25;;;;;;;5.00;4.50;;;28.70;53.50;;;-142.21;55.29;112049.66;5051754;28;20282;-73
2022/08/25 08:32:52;;;;;;;5.20;3.93;;;28.80;53.20;;;-142.21;54.53;112049.66;5050933;28;20292;-72
2022/08/25 08:35:20;;;;;;;6.73;4.20;;;28.90;52.90;;;-142.21;55.52;112049.66;5051500;28;20212;-71
2022/08/25 08:37:47;;;;;;;4.07;3.67;;;29.00;53.10;;;-142.21;54.16;112049.66;5050806;28;20771;-71
2022/08/25 08:40:18;;;;;;;4.60;4.13;;;29.10;52.70;;;-142.21;52.47;112049.66;5051664;28;20216;-72
2022/08/25 08:43:05;;;;;;;4.27;3.87;;;29.20;52.30;;;-142.21;54.39;112049.66;5051165;28;20266;-74
2022/08/25 08:45:42;;;;;;;4.97;3.73;;;29.30;52.80;;;-142.21;53.75;112049.66;5051469;28;20248;-72
2022/08/25 08:48:49;;;;;;;3.83;3.43;;;29.50;52.50;;;-142.21;52.16;112049.66;5051600;28;20296;-73
2022/08/25 08:51:23;;;;;;;4.40;3.60;;;29.50;51.70;;;-142.21;50.20;112049.66;5034507;28;20312;-74
2022/08/25 08:53:56;;;;;;;5.57;4.17;;;29.60;51.20;;;-142.21;48.52;112049.66;5050963;28;20600;-71
2022/08/25 08:56:30;;;;;;;4.43;3.83;;;29.70;50.50;;;-142.21;48.28;112049.66;5051687;28;20216;-71
2022/08/25 08:59:04;;;;;;;5.80;3.80;;;29.70;51.10;;;-142.21;49.45;112049.66;5016018;28;20229;-72
2022/08/25 09:01:42;;;;;;;4.00;3.60;;;29.80;50.70;;;-142.21;48.63;112049.66;5051348;28;20283;-72
2022/08/25 09:04:18;;;;;;;4.43;4.00;;;29.90;50.30;;;-142.21;50.17;112049.66;5051216;28;20240;-71
2022/08/25 09:06:48;;;;;;;4.37;3.27;;;30.00;50.70;;;-142.21;48.59;112049.66;5050689;28;20193;-72
2022/08/25 09:09:25;;;;;;;3.57;3.27;;;30.10;50.30;;;-142.21;46.75;112049.66;5052954;28;20716;-72
2022/08/25 09:12:07;;;;;;;4.23;3.77;;;30.20;49.50;;;-142.21;46.07;112049.66;5054582;28;20290;-71
2022/08/25 09:14:54;;;;;;;3.83;3.43;;;30.30;49.20;;;-142.21;47.25;112049.66;5054735;28;20243;-72
2022/08/25 09:17:51;;;;;;;3.57;3.27;;;30.40;49.60;;;-142.21;45.42;112049.66;5055137;28;20200;-72
2022/08/25 09:20:43;;;;;;;3.50;3.20;;;30.60;48.90;;;-142.21;45.75;112049.66;5054841;28;20197;-73
2022/08/25 09:23:32;;;;;;;5.03;3.40;;;30.70;48.80;;;-142.21;43.41;112049.66;5054895;28;20194;-72
2022/08/25 09:26:27;;;;;;;4.43;3.50;;;30.90;48.10;;;-142.21;43.13;112049.66;5035541;28;20206;-72
2022/08/25 09:29:05;;;;;;;4.77;3.23;;;31.00;48.00;;;-142.21;42.41;112049.66;5054175;28;20248;-72
2022/08/25 09:31:37;;;;;;;3.40;3.10;;;31.10;47.20;;;-142.21;42.83;112049.66;5054830;28;20280;-71
2022/08/25 09:34:12;;;;;;;7.93;3.50;;;31.20;47.40;;;-142.21;41.79;112049.66;5054248;28;20228;-73
2022/08/25 09:36:40;;;;;;;3.10;2.90;;;31.30;47.10;;;-142.21;42.12;112049.66;5054882;28;20251;-73
2022/08/25 09:39:08;;;;;;;3.90;3.50;;;31.40;46.90;;;-142.21;42.08;112049.66;5054180;28;20205;-71
2022/08/25 09:41:47;;;;;;;4.30;3.20;;;31.50;47.00;;;-142.21;41.29;112049.66;5054558;28;20602;-72
2022/08/25 09:44:22;;;;;;;3.33;3.00;;;31.60;46.50;;;-142.21;40.21;112049.66;5054485;28;20194;-73
2022/08/25 09:47:01;;;;;;;3.10;2.80;;;31.70;45.70;;;-142.21;39.39;112049.66;5053795;28;20189;-73
2022/08/25 09:49:40;;;;;;;3.80;3.40;;;31.70;45.40;;;-142.21;39.69;112049.66;5054161;28;20200;-73
2022/08/25 09:52:36;;;;;;;4.47;2.97;;;31.80;44.90;;;-142.21;37.76;112049.66;5054310;28;20259;-72
2022/08/25 09:55:33;;;;;;;3.70;3.40;;;31.80;42.60;;;-142.21;38.51;112049.66;5053769;28;20194;-71
2022/08/25 09:58:00;;;;;;;3.60;3.30;;;31.70;43.70;;;-142.21;38.23;112049.66;5053291;28;20237;-73
2022/08/25 10:00:32;;;;;;;3.20;2.90;;;31.70;44.20;;;-142.21;37.66;112049.66;5053961;28;20690;-72
2022/08/25 10:03:11;;;;;;;3.10;2.80;;;31.80;43.70;;;-142.21;37.19;112049.66;5053427;28;20194;-73
2022/08/25 10:06:00;;;;;;;3.93;3.13;;;31.90;42.90;;;-142.21;37.66;112049.66;5054754;28;20647;-73
2022/08/25 10:08:35;;;;;;;3.80;3.50;;;31.90;43.00;;;-142.21;38.02;112049.66;5062336;28;20202;-73
2022/08/25 10:11:07;;;;;;;3.50;3.20;;;32.00;43.80;;;-142.21;38.30;112049.66;5054505;28;20290;-71
2022/08/25 10:13:42;;;;;;;3.60;3.30;;;32.20;43.80;;;-142.21;37.85;112049.66;5053879;28;20198;-72
2022/08/25 10:16:23;;;;;;;3.90;3.13;;;32.30;43.40;;;-142.21;38.20;112049.66;5053802;28;20202;-73
2022/08/25 10:19:05;;;;;;;3.33;3.00;;;32.40;43.50;;;-142.21;36.95;112049.66;5053085;28;20194;-73